Airfield :
LOGIN :

Register | Disclaimer

   EN    FR    IT 

 










Legend :    VFR   Marginal VFR   IFR   Intensive IFR   Very Intensive IFR
Visi :
Ceiling :
>= 8 km
>= 3000ft
5 to 8 km
1000 to 3000 ft
1500m to 5 km
500 to 1000 ft
800 to 1500m
200 to 500 ft
< 800m
< 200 ft
Symbols :   Thunderstorms  Fog  Heavy snow  Heavy precipitations  Wind > 20 kt
SIGMETs :     Misc.  Thunderstorms  Icing  Turbulence  Mountain Waves  Volcanic Ashes






- Airport Elevation : 436 ft
- IATA code : ANG


LFBU - Angoulême Brie Champniers

CURRENT METAR :
  • 120500Z AUTO 16004KT 9999 SCT034 BKN040 BKN100 04/03 Q1012

EXPIRED METARs :
  • 120430Z AUTO 18005KT 9999 FEW035 SCT046 BKN120 04/03 Q1012
  • 120400Z AUTO VRB03KT 9999 -RA FEW040 BKN047 BKN054 04/03 Q1013
  • 120330Z AUTO 17003KT 9999 FEW049 SCT080 BKN100 04/03 Q1013
  • 120300Z AUTO 17003KT 9999 FEW041 BKN078 OVC200 04/03 Q1013
  • 120230Z AUTO 20003KT CAVOK 04/03 Q1013

TAF TAF LFBU
Valid from the 11 at 18:00 until the 12 at 18:00 UTC


111700Z 1118/1218 24010KT 9999 BKN030
TEMPO 1118/1121 28015G30KT 4000 SHRA SCT015CB BKN020TCU
PROB40
TEMPO 1118/1120 28020G40KT 1500 TSRA BKN015CB
BECMG 1204/1206 18010KT
TEMPO 1206/1212 4000 -RA BKN014
BECMG 1212/1214 18015G25KT 4000 -RA BKN012
TEMPO 1215/1218 22020G35KT 2000 -RA BKN010 BKN015CB



MET'MAP, your aeronautical weather chart ! - Copyright ORBIFLY December 2007 - Disclaimer

ORBIFLY MET'MAP TEAM :

Programming & Development : Alexandra Zaïnal
Concept & original design : Baudouin d'Aumeries
Assistance for programming : Marc-Olivier Méhu
Technical & hardware support : Manuel Goepfert

Contact : metmap@orbifly.com




SOURCES & CREDITS :

   NOAA